createdAt,value
2023-03-16T00:01:40.384Z,14.52
2023-03-16T00:07:02.213Z,13.57
2023-03-16T00:12:24.053Z,13.77
2023-03-16T00:17:45.968Z,14.30
2023-03-16T00:23:07.802Z,14.88
2023-03-16T00:28:31.540Z,14.40
2023-03-16T00:33:53.618Z,15.63
2023-03-16T00:39:15.452Z,16.10
2023-03-16T00:44:37.945Z,15.52
2023-03-16T00:50:01.260Z,16.05
2023-03-16T00:55:23.141Z,15.85
2023-03-16T01:00:45.026Z,15.52
2023-03-16T01:06:09.395Z,15.75
2023-03-16T01:11:31.480Z,15.50
2023-03-16T01:16:53.365Z,15.63
2023-03-16T01:22:15.788Z,14.68
2023-03-16T01:27:37.716Z,15.30
2023-03-16T01:32:59.628Z,13.07
2023-03-16T01:38:22.305Z,12.65
2023-03-16T01:43:44.289Z,13.48
2023-03-16T01:49:12.312Z,13.00
2023-03-16T01:54:57.172Z,12.93
2023-03-16T02:00:20.974Z,12.77
2023-03-16T02:06:08.684Z,12.10
2023-03-16T02:11:30.571Z,11.02
2023-03-16T02:16:52.927Z,11.88
2023-03-16T02:22:14.922Z,11.70
2023-03-16T02:28:03.755Z,10.82
2023-03-16T02:33:26.397Z,12.35
2023-03-16T02:38:48.328Z,9.95
2023-03-16T02:44:18.140Z,10.30
2023-03-16T02:49:43.676Z,10.10
2023-03-16T02:55:06.884Z,10.30
2023-03-16T03:00:29.161Z,9.63
2023-03-16T03:05:51.152Z,9.20
2023-03-16T03:11:13.023Z,9.63
2023-03-16T03:16:34.925Z,9.45
2023-03-16T03:21:56.857Z,8.60
2023-03-16T03:27:19.657Z,8.65
2023-03-16T03:32:42.057Z,8.20
2023-03-16T03:38:03.980Z,8.13
2023-03-16T03:43:25.962Z,8.43
2023-03-16T03:48:47.845Z,9.32
2023-03-16T03:54:10.274Z,8.13
2023-03-16T03:59:32.344Z,9.75
2023-03-16T04:04:54.213Z,8.90
2023-03-16T04:10:16.110Z,9.20
2023-03-16T04:15:38.001Z,9.85
2023-03-16T04:20:59.824Z,9.85
2023-03-16T04:26:22.207Z,10.77
2023-03-16T04:31:44.836Z,10.70
2023-03-16T04:37:06.774Z,10.98
2023-03-16T04:42:28.573Z,10.85
2023-03-16T04:47:50.576Z,10.27
2023-03-16T04:53:12.392Z,10.90
2023-03-16T04:58:34.270Z,10.25
2023-03-16T05:03:57.923Z,10.85
2023-03-16T05:09:21.131Z,9.88
2023-03-16T05:14:43.014Z,10.30
2023-03-16T05:20:05.282Z,10.18
2023-03-16T05:25:27.362Z,10.07
2023-03-16T05:30:49.249Z,10.02
2023-03-16T05:36:11.448Z,9.38
2023-03-16T05:41:33.318Z,10.30
2023-03-16T05:46:55.330Z,9.52
2023-03-16T05:52:17.209Z,9.13
2023-03-16T05:57:39.075Z,8.68
2023-03-16T06:03:01.045Z,7.65
2023-03-16T06:08:23.068Z,9.18
2023-03-16T06:13:44.973Z,8.48
2023-03-16T06:19:06.867Z,9.48
2023-03-16T06:24:28.827Z,9.02
2023-03-16T06:29:50.730Z,9.60
2023-03-16T06:35:13.141Z,8.05
2023-03-16T06:40:34.986Z,7.68
2023-03-16T06:45:57.012Z,7.40
2023-03-16T06:51:19.009Z,7.70
2023-03-16T06:56:40.922Z,7.47
2023-03-16T07:02:02.970Z,7.53
2023-03-16T07:07:24.836Z,7.75
2023-03-16T07:12:46.722Z,8.55
2023-03-16T07:18:08.602Z,7.57
2023-03-16T07:23:30.424Z,8.13
2023-03-16T07:28:52.294Z,8.43
2023-03-16T07:34:14.196Z,7.72
2023-03-16T07:39:36.631Z,8.07
2023-03-16T07:44:58.556Z,7.50
2023-03-16T07:50:20.493Z,7.03
2023-03-16T07:55:43.115Z,6.85
2023-03-16T08:01:05.151Z,6.63
2023-03-16T08:06:28.282Z,7.70
2023-03-16T08:11:50.163Z,7.10
2023-03-16T08:17:12.191Z,7.45
2023-03-16T08:22:34.000Z,7.15
2023-03-16T08:27:55.832Z,6.10
2023-03-16T08:33:19.555Z,5.93
2023-03-16T08:38:44.147Z,7.23
2023-03-16T08:44:07.293Z,6.15
2023-03-16T08:49:30.149Z,6.03
2023-03-16T08:55:02.536Z,7.00
2023-03-16T09:00:25.236Z,5.63
2023-03-16T09:05:47.328Z,6.07
2023-03-16T09:11:12.628Z,6.07
2023-03-16T09:16:34.510Z,6.97
2023-03-16T09:21:56.442Z,5.38
2023-03-16T09:27:19.603Z,6.38
2023-03-16T09:32:41.692Z,6.20
2023-03-16T09:38:05.971Z,4.50
2023-03-16T09:43:40.899Z,5.43
2023-03-16T09:49:02.911Z,7.13
2023-03-16T09:55:07.324Z,6.32
2023-03-16T10:00:41.138Z,6.38
2023-03-16T10:06:08.994Z,5.45
2023-03-16T10:11:39.668Z,4.78
2023-03-16T10:17:09.731Z,4.78
2023-03-16T10:22:34.809Z,5.55
2023-03-16T10:27:56.919Z,4.50
2023-03-16T10:33:27.609Z,4.32
2023-03-16T10:39:04.461Z,3.00
2023-03-16T10:44:28.897Z,2.88
2023-03-16T10:49:51.242Z,2.60
2023-03-16T10:55:31.868Z,3.17
2023-03-16T11:00:53.822Z,3.00
2023-03-16T11:06:21.578Z,4.05
2023-03-16T11:11:47.766Z,3.95
2023-03-16T11:17:17.894Z,4.55
2023-03-16T11:22:41.377Z,5.07
2023-03-16T11:28:06.025Z,4.80
2023-03-16T11:39:21.332Z,3.20
2023-03-16T11:45:08.842Z,3.92
2023-03-16T11:50:30.622Z,3.55
2023-03-16T11:56:20.212Z,3.60
2023-03-16T12:02:01.611Z,3.58
2023-03-16T12:07:42.035Z,4.70
2023-03-16T12:13:06.865Z,4.38
2023-03-16T12:18:50.512Z,4.90
2023-03-16T12:24:16.670Z,4.95
2023-03-16T12:29:51.762Z,4.20
2023-03-16T12:35:19.589Z,4.45
2023-03-16T12:40:53.250Z,4.00
2023-03-16T12:46:22.577Z,3.90
2023-03-16T12:51:44.523Z,4.38
2023-03-16T12:57:09.404Z,4.35
2023-03-16T13:02:34.661Z,4.60
2023-03-16T13:08:13.176Z,4.18
2023-03-16T13:13:35.796Z,3.42
2023-03-16T13:18:58.277Z,4.45
2023-03-16T13:24:20.156Z,3.80
2023-03-16T13:29:53.342Z,3.42
2023-03-16T13:35:17.705Z,3.92
2023-03-16T13:40:49.414Z,4.38
2023-03-16T13:46:16.153Z,3.53
2023-03-16T13:51:38.546Z,3.30
2023-03-16T13:57:03.771Z,4.07
2023-03-16T14:02:25.613Z,3.33
2023-03-16T14:07:49.313Z,3.55
2023-03-16T14:13:29.139Z,3.83
2023-03-16T14:19:05.890Z,2.92
2023-03-16T14:24:35.174Z,4.25
2023-03-16T14:30:01.411Z,3.78
2023-03-16T14:35:30.267Z,3.65
2023-03-16T14:41:15.081Z,3.15
2023-03-16T14:46:40.898Z,3.13
2023-03-16T14:52:14.956Z,3.03
2023-03-16T14:57:36.839Z,3.28
2023-03-16T15:03:07.749Z,4.65
2023-03-16T15:08:33.309Z,3.13
2023-03-16T15:13:55.234Z,3.38
2023-03-16T15:19:17.042Z,3.92
2023-03-16T15:24:39.632Z,3.35
2023-03-16T15:30:01.542Z,2.90
2023-03-16T15:35:23.701Z,2.65
2023-03-16T15:40:46.340Z,2.28
2023-03-16T15:46:09.813Z,2.70
2023-03-16T15:51:32.450Z,2.40
2023-03-16T15:56:54.930Z,2.72
2023-03-16T16:02:28.368Z,2.83
2023-03-16T16:07:50.209Z,2.78
2023-03-16T16:13:37.394Z,3.40
2023-03-16T16:19:03.308Z,3.28
2023-03-16T16:24:25.289Z,3.20
2023-03-16T16:29:47.234Z,4.15
2023-03-16T16:35:17.186Z,5.05
2023-03-16T16:40:40.695Z,4.65
2023-03-16T16:46:06.714Z,4.47
2023-03-16T16:51:29.411Z,5.35
2023-03-16T16:56:54.034Z,5.22
2023-03-16T17:02:45.789Z,5.20
2023-03-16T17:08:11.221Z,5.30
2023-03-16T17:13:39.075Z,5.28
2023-03-16T17:19:01.033Z,7.07
2023-03-16T17:24:23.368Z,5.88
2023-03-16T17:29:45.191Z,5.50
2023-03-16T17:35:16.236Z,6.38
2023-03-16T17:40:38.108Z,15.05
2023-03-16T17:46:03.056Z,6.68
2023-03-16T17:51:25.072Z,6.85
2023-03-16T17:56:50.521Z,6.60
2023-03-16T18:02:37.138Z,6.03
2023-03-16T18:08:01.973Z,5.28
2023-03-16T18:13:29.695Z,5.72
2023-03-16T18:18:53.436Z,5.53
2023-03-16T18:24:15.673Z,5.82
2023-03-16T18:29:37.954Z,5.40
2023-03-16T18:35:00.563Z,6.47
2023-03-16T18:40:24.425Z,6.30
2023-03-16T18:45:47.204Z,7.45
2023-03-16T18:51:13.342Z,6.90
2023-03-16T18:56:35.266Z,6.88
2023-03-16T19:01:57.951Z,6.80
2023-03-16T19:07:33.662Z,6.28
2023-03-16T19:12:56.181Z,6.17
2023-03-16T19:18:18.385Z,7.25
2023-03-16T19:23:40.427Z,7.20
2023-03-16T19:29:03.482Z,7.45
2023-03-16T19:34:25.644Z,6.95
2023-03-16T19:39:47.490Z,8.98
2023-03-16T19:45:18.468Z,10.00
2023-03-16T19:50:40.658Z,9.07
2023-03-16T19:56:02.611Z,8.43
2023-03-16T20:01:33.000Z,6.90
2023-03-16T20:06:55.100Z,7.63
2023-03-16T20:12:27.879Z,6.80
2023-03-16T20:17:50.566Z,6.20
2023-03-16T20:23:25.024Z,6.45
2023-03-16T20:28:47.976Z,6.38
2023-03-16T20:34:30.829Z,6.53
2023-03-16T20:39:54.020Z,6.10
2023-03-16T20:45:21.122Z,6.53
2023-03-16T20:50:43.223Z,7.00
2023-03-16T20:56:05.482Z,6.07
2023-03-16T21:01:27.357Z,8.90
2023-03-16T21:06:49.382Z,11.57
2023-03-16T21:12:23.481Z,26.92
2023-03-16T21:17:45.535Z,20.90
2023-03-16T21:23:15.862Z,22.45
2023-03-16T21:28:37.738Z,16.30
2023-03-16T21:34:00.334Z,17.95
2023-03-16T21:39:22.687Z,13.13
2023-03-16T21:44:44.926Z,13.45
2023-03-16T21:50:14.294Z,13.90
2023-03-16T21:55:36.187Z,12.35
2023-03-16T22:00:58.446Z,12.68
2023-03-16T22:06:22.464Z,14.23
2023-03-16T22:11:44.428Z,15.70
2023-03-16T22:17:15.457Z,15.75
2023-03-16T22:22:37.334Z,17.77
2023-03-16T22:27:59.194Z,19.90
2023-03-16T22:33:26.108Z,18.73
2023-03-16T22:38:59.676Z,19.20
2023-03-16T22:44:23.000Z,20.08
2023-03-16T22:49:44.906Z,22.98
2023-03-16T22:55:07.942Z,22.15
2023-03-16T23:00:30.378Z,23.58
2023-03-16T23:05:52.702Z,22.58
2023-03-16T23:11:20.474Z,23.42
2023-03-16T23:16:43.750Z,22.67
2023-03-16T23:22:07.174Z,24.60
2023-03-16T23:27:29.069Z,22.40
2023-03-16T23:32:52.428Z,21.58
2023-03-16T23:38:14.371Z,21.67
2023-03-16T23:43:36.421Z,22.35
2023-03-16T23:49:02.829Z,22.00
2023-03-16T23:59:47.797Z,23.60
